Time;durP1;ratioP1;P1;durP2;ratioP2;P2;SDS_P1;SDS_P2;PMS_P1;PMS_P2;Temp;Humidity;BMP_temperature;BMP_pressure;BME280_temperature;BME280_humidity;BME280_pressure;Samples;Min_cycle;Max_cycle;Signal;HPM_P1;HPM_P2
2021/04/16 00:00:44;;;;;;;3.15;1.27;;;-1.60;99.90;;;;;;5050731;28;20201;-82
2021/04/16 00:03:14;;;;;;;4.50;1.40;;;-1.70;99.90;;;;;;5065737;28;20200;-82
2021/04/16 00:05:41;;;;;;;3.28;1.35;;;-1.70;99.90;;;;;;5060593;28;20228;-82
2021/04/16 00:08:17;;;;;;;9.40;1.52;;;-1.70;99.90;;;;;;5049948;28;20196;-83
2021/04/16 00:10:48;;;;;;;4.70;1.30;;;-1.70;99.90;;;;;;5045102;28;20291;-82
2021/04/16 00:13:18;;;;;;;2.45;1.50;;;-1.70;99.90;;;;;;5052187;28;20193;-82
2021/04/16 00:15:45;;;;;;;1.83;1.40;;;-1.70;99.90;;;;;;5060619;28;20197;-82
2021/04/16 00:18:16;;;;;;;3.22;1.05;;;-1.50;99.90;;;;;;5065170;28;20671;-82
2021/04/16 00:20:42;;;;;;;2.42;1.25;;;-1.40;99.90;;;;;;5063639;28;20205;-82
2021/04/16 00:23:08;;;;;;;2.75;1.35;;;-1.40;99.90;;;;;;5052253;28;20208;-82
2021/04/16 00:25:35;;;;;;;1.73;1.10;;;-1.30;99.90;;;;;;5064031;28;20189;-82
2021/04/16 00:28:02;;;;;;;2.95;1.30;;;-1.10;99.90;;;;;;5050975;28;20376;-82
2021/04/16 00:30:42;;;;;;;10.63;1.58;;;-0.50;99.90;;;;;;5060379;28;20258;-81
2021/04/16 00:33:09;;;;;;;4.30;1.30;;;-0.20;99.90;;;;;;5047945;28;20197;-81
2021/04/16 00:35:36;;;;;;;3.65;1.30;;;-0.10;99.90;;;;;;5061838;28;20278;-81
2021/04/16 00:38:03;;;;;;;2.17;1.13;;;0.00;99.90;;;;;;5063631;28;20204;-81
2021/04/16 00:40:38;;;;;;;5.25;1.58;;;0.00;99.90;;;;;;5063528;28;20762;-82
2021/04/16 00:43:04;;;;;;;1.55;1.13;;;0.00;99.90;;;;;;5063348;28;20271;-82
2021/04/16 00:45:32;;;;;;;2.47;1.23;;;0.10;99.90;;;;;;5065000;28;20185;-81
2021/04/16 00:48:00;;;;;;;1.23;1.08;;;0.00;99.90;;;;;;5060827;28;20672;-81
2021/04/16 00:50:37;;;;;;;2.10;1.25;;;-0.20;99.90;;;;;;5062647;28;20189;-81
2021/04/16 00:53:04;;;;;;;1.80;1.00;;;-0.10;99.90;;;;;;5061371;28;20193;-82
2021/04/16 00:55:30;;;;;;;4.38;1.20;;;0.00;99.90;;;;;;5049943;28;20958;-81
2021/04/16 00:57:55;;;;;;;1.73;1.25;;;-0.20;99.90;;;;;;5062929;28;20268;-81
2021/04/16 01:00:24;;;;;;;1.70;1.10;;;-0.10;99.90;;;;;;5051929;28;20197;-83
2021/04/16 01:02:50;;;;;;;3.75;1.20;;;-0.20;99.90;;;;;;5044138;28;20204;-83
2021/04/16 01:05:17;;;;;;;4.53;1.60;;;-0.20;99.90;;;;;;5026790;22;20243;-74
2021/04/16 01:07:42;;;;;;;2.70;1.35;;;-0.10;99.90;;;;;;5037242;28;20206;-71
2021/04/16 01:10:09;;;;;;;7.28;1.30;;;0.00;99.90;;;;;;5021083;28;20209;-71
2021/04/16 01:12:36;;;;;;;2.17;1.48;;;-0.10;99.90;;;;;;5022242;28;20719;-72
2021/04/16 01:15:16;;;;;;;2.33;1.15;;;-0.20;99.90;;;;;;5024597;28;20202;-71
2021/04/16 01:17:44;;;;;;;7.60;1.30;;;-0.20;99.90;;;;;;5025541;28;20193;-71
2021/04/16 01:20:18;;;;;;;2.97;1.30;;;-0.10;99.90;;;;;;5040234;28;20248;-72
2021/04/16 01:23:19;;;;;;;6.93;1.38;;;-0.10;99.90;;;;;;5027262;28;20198;-72
2021/04/16 01:25:45;;;;;;;6.93;1.38;;;0.00;99.90;;;;;;5040605;28;20206;-71
2021/04/16 01:28:12;;;;;;;4.25;1.20;;;0.20;99.90;;;;;;5027560;28;20191;-71
2021/04/16 01:30:54;;;;;;;9.32;1.52;;;0.50;99.90;;;;;;5026618;28;20201;-72
2021/04/16 01:33:20;;;;;;;2.75;1.20;;;0.60;99.90;;;;;;5027691;28;20193;-71
2021/04/16 01:35:45;;;;;;;4.03;1.65;;;0.80;99.90;;;;;;5026145;28;20267;-71
2021/04/16 01:38:11;;;;;;;4.70;1.20;;;1.00;99.90;;;;;;5025336;28;20263;-72
2021/04/16 01:40:37;;;;;;;6.63;1.30;;;0.90;99.90;;;;;;5025234;28;20281;-72
2021/04/16 01:43:15;;;;;;;1.73;1.23;;;0.80;99.90;;;;;;5027257;28;20574;-71
2021/04/16 01:45:40;;;;;;;4.53;1.42;;;0.70;99.90;;;;;;5026766;28;20190;-72
2021/04/16 01:48:06;;;;;;;9.35;1.67;;;0.90;99.90;;;;;;5027901;28;20683;-71
2021/04/16 01:50:32;;;;;;;3.30;1.50;;;1.00;99.90;;;;;;5024726;28;20217;-73
2021/04/16 01:53:00;;;;;;;4.32;1.63;;;1.20;99.90;;;;;;5027566;28;20193;-71
2021/04/16 01:55:26;;;;;;;3.50;1.50;;;1.20;99.90;;;;;;5025634;28;20194;-70
2021/04/16 01:57:52;;;;;;;3.53;1.20;;;1.20;99.90;;;;;;5027415;28;20198;-71
2021/04/16 02:00:38;;;;;;;4.93;1.17;;;1.20;99.90;;;;;;5023833;28;20265;-71
2021/04/16 02:03:04;;;;;;;3.13;1.40;;;1.10;99.90;;;;;;5025803;28;20793;-71
2021/04/16 02:05:31;;;;;;;5.05;1.33;;;1.20;99.90;;;;;;5024954;28;20712;-71
2021/04/16 02:07:57;;;;;;;2.53;1.10;;;1.10;99.90;;;;;;5025758;28;20200;-71
2021/04/16 02:10:23;;;;;;;3.78;1.27;;;1.10;99.90;;;;;;5025689;28;20202;-72
2021/04/16 02:12:50;;;;;;;1.38;1.20;;;1.00;99.90;;;;;;5041020;28;20660;-71
2021/04/16 02:15:15;;;;;;;2.00;1.08;;;1.00;99.90;;;;;;5026016;28;20263;-71
2021/04/16 02:17:41;;;;;;;3.40;1.35;;;1.00;99.90;;;;;;5023047;28;20202;-72
2021/04/16 02:20:21;;;;;;;3.40;1.50;;;1.00;99.90;;;;;;5024650;28;20291;-72
2021/04/16 02:22:46;;;;;;;3.72;1.42;;;1.00;99.90;;;;;;5025280;28;20297;-72
2021/04/16 02:25:13;;;;;;;4.22;1.50;;;1.00;99.90;;;;;;5024068;28;20295;-73
2021/04/16 02:27:39;;;;;;;1.88;1.30;;;0.90;99.90;;;;;;5025804;28;20250;-71
2021/04/16 02:30:09;;;;;;;2.15;1.10;;;0.90;99.90;;;;;;5025441;28;20722;-71
2021/04/16 02:32:35;;;;;;;2.95;1.20;;;1.00;99.90;;;;;;5026225;28;20284;-72
2021/04/16 02:35:01;;;;;;;3.00;1.30;;;1.00;99.90;;;;;;5024574;28;20256;-71
2021/04/16 02:37:27;;;;;;;7.10;1.50;;;0.90;99.90;;;;;;5023642;28;20202;-70
2021/04/16 02:39:52;;;;;;;2.38;1.10;;;0.90;99.90;;;;;;5022864;28;20297;-72
2021/04/16 02:42:18;;;;;;;2.38;1.33;;;0.90;99.90;;;;;;5025302;28;20194;-71
2021/04/16 02:44:44;;;;;;;2.40;1.23;;;0.80;99.90;;;;;;5022321;28;20263;-71
2021/04/16 02:47:11;;;;;;;1.65;1.23;;;0.70;99.90;;;;;;5028876;28;20671;-71
2021/04/16 02:49:37;;;;;;;2.10;1.38;;;0.80;99.90;;;;;;5023116;28;20198;-71
2021/04/16 02:52:03;;;;;;;1.85;1.20;;;0.80;99.90;;;;;;5025511;28;20567;-71
2021/04/16 02:54:29;;;;;;;3.53;1.70;;;0.80;99.90;;;;;;5024473;28;20350;-71
2021/04/16 02:56:55;;;;;;;2.47;1.23;;;0.70;99.90;;;;;;5026309;28;20202;-72
2021/04/16 02:59:23;;;;;;;4.53;1.52;;;0.80;99.90;;;;;;5026832;28;20301;-71
2021/04/16 03:01:49;;;;;;;7.20;1.63;;;0.70;99.90;;;;;;5023808;28;20235;-70
2021/04/16 03:04:16;;;;;;;4.68;1.20;;;0.70;99.90;;;;;;5027933;28;20283;-72
2021/04/16 03:06:41;;;;;;;2.15;1.20;;;0.70;99.90;;;;;;5023388;28;20225;-71
2021/04/16 03:09:07;;;;;;;4.07;1.50;;;0.80;99.90;;;;;;5024111;28;20226;-73
2021/04/16 03:11:34;;;;;;;5.22;1.58;;;0.80;99.90;;;;;;5026618;28;20614;-71
2021/04/16 03:13:59;;;;;;;4.75;1.40;;;0.80;99.90;;;;;;5025221;28;20691;-72
2021/04/16 03:16:27;;;;;;;3.60;1.40;;;0.70;99.90;;;;;;5025359;28;20209;-71
2021/04/16 03:18:55;;;;;;;4.60;1.45;;;0.80;99.90;;;;;;5020382;28;20641;-72
2021/04/16 03:21:21;;;;;;;3.58;1.40;;;0.80;99.90;;;;;;5024849;28;20960;-72
2021/04/16 03:23:47;;;;;;;2.17;1.27;;;0.80;99.90;;;;;;5020563;28;20220;-72
2021/04/16 03:26:13;;;;;;;4.05;1.58;;;0.80;99.90;;;;;;5022176;28;20223;-72
2021/04/16 03:28:38;;;;;;;2.63;1.50;;;0.70;99.90;;;;;;5022341;28;20198;-72
2021/04/16 03:31:04;;;;;;;4.57;1.70;;;0.70;99.90;;;;;;5027551;28;20194;-71
2021/04/16 03:33:30;;;;;;;4.20;1.40;;;0.60;99.90;;;;;;5023884;28;20335;-72
2021/04/16 03:35:55;;;;;;;2.35;1.40;;;0.60;99.90;;;;;;5024006;28;20194;-70
2021/04/16 03:38:21;;;;;;;3.60;1.33;;;0.60;99.90;;;;;;5026360;28;20235;-71
2021/04/16 03:40:47;;;;;;;1.70;1.40;;;0.70;99.90;;;;;;5022343;28;20684;-72
2021/04/16 03:43:14;;;;;;;3.03;1.27;;;0.70;99.90;;;;;;5024933;28;20206;-72
2021/04/16 03:45:40;;;;;;;5.68;1.48;;;0.70;99.90;;;;;;5023113;28;20202;-70
2021/04/16 03:48:06;;;;;;;6.68;1.80;;;0.70;99.90;;;;;;5020528;28;20194;-71
2021/04/16 03:50:34;;;;;;;2.25;1.50;;;0.70;99.90;;;;;;5028914;28;20665;-72
2021/04/16 03:53:00;;;;;;;2.25;1.58;;;0.60;99.90;;;;;;5022122;28;21006;-71
2021/04/16 03:55:29;;;;;;;4.18;1.38;;;0.60;99.90;;;;;;5024060;28;20277;-71
2021/04/16 03:57:55;;;;;;;3.67;1.10;;;0.70;99.90;;;;;;5024027;28;20195;-71
2021/04/16 04:00:27;;;;;;;3.63;1.45;;;0.70;99.90;;;;;;5023259;28;20274;-71
2021/04/16 04:02:53;;;;;;;2.58;1.30;;;0.80;99.90;;;;;;5022235;28;20206;-73
2021/04/16 04:05:19;;;;;;;5.30;1.40;;;0.80;99.90;;;;;;5022329;28;20229;-71
2021/04/16 04:07:45;;;;;;;4.82;1.58;;;0.80;99.90;;;;;;5023387;28;20205;-71
2021/04/16 04:10:12;;;;;;;4.38;1.35;;;0.80;99.90;;;;;;5023813;28;20198;-71
2021/04/16 04:12:38;;;;;;;6.07;1.30;;;0.80;99.90;;;;;;5041230;28;20198;-72
2021/04/16 04:15:06;;;;;;;3.60;1.60;;;0.90;99.90;;;;;;5017681;28;20254;-71
2021/04/16 04:17:35;;;;;;;2.60;1.42;;;0.80;99.90;;;;;;5020725;28;20219;-72
2021/04/16 04:20:02;;;;;;;3.50;1.58;;;0.80;99.90;;;;;;5025409;28;20769;-71
2021/04/16 04:22:28;;;;;;;3.55;1.48;;;0.90;99.90;;;;;;5022875;28;20811;-72
2021/04/16 04:24:53;;;;;;;1.92;1.42;;;0.90;99.90;;;;;;5024494;28;20209;-71
2021/04/16 04:27:19;;;;;;;3.40;1.50;;;1.00;99.90;;;;;;5008210;28;20202;-71
2021/04/16 04:29:45;;;;;;;6.05;1.38;;;1.10;99.90;;;;;;5022693;28;20225;-71
2021/04/16 04:32:12;;;;;;;2.03;1.48;;;1.10;99.90;;;;;;5026524;28;20678;-73
2021/04/16 04:34:39;;;;;;;4.13;1.38;;;1.20;99.90;;;;;;5020557;28;20210;-71
2021/04/16 04:37:05;;;;;;;7.20;1.70;;;1.20;99.90;;;;;;5038365;28;20202;-71
2021/04/16 04:39:35;;;;;;;2.13;1.30;;;1.20;99.90;;;;;;5036333;28;20210;-72
2021/04/16 04:42:04;;;;;;;3.28;1.60;;;1.20;99.90;;;;;;5026711;28;20202;-71
2021/04/16 04:44:30;;;;;;;3.28;1.20;;;1.30;99.90;;;;;;5018961;28;20206;-71
2021/04/16 04:46:56;;;;;;;2.72;1.80;;;1.40;99.90;;;;;;5019790;28;20574;-71
2021/04/16 04:49:22;;;;;;;4.30;1.75;;;1.40;99.90;;;;;;5021007;28;20194;-71
2021/04/16 04:51:51;;;;;;;1.70;1.40;;;1.40;99.90;;;;;;5016596;28;20213;-72
2021/04/16 04:54:18;;;;;;;6.85;1.48;;;1.50;99.90;;;;;;5035447;28;20214;-73
2021/04/16 04:56:44;;;;;;;2.53;1.50;;;1.50;99.90;;;;;;5017525;28;20289;-73
2021/04/16 04:59:09;;;;;;;2.40;1.15;;;1.60;99.90;;;;;;5018259;28;20204;-71
2021/04/16 05:01:35;;;;;;;2.33;1.50;;;1.70;99.90;;;;;;5020463;28;20848;-71
2021/04/16 05:04:01;;;;;;;3.63;1.67;;;1.80;99.90;;;;;;5019875;28;21037;-73
2021/04/16 05:06:27;;;;;;;4.25;1.55;;;1.90;99.90;;;;;;5037271;28;20653;-71
2021/04/16 05:08:52;;;;;;;2.70;1.52;;;1.90;99.90;;;;;;5017555;28;20313;-71
2021/04/16 05:11:19;;;;;;;6.07;1.90;;;2.00;99.90;;;;;;5015519;28;20230;-72
2021/04/16 05:13:51;;;;;;;2.85;1.50;;;2.10;99.90;;;;;;5031378;28;20820;-71
2021/04/16 05:16:16;;;;;;;3.95;1.73;;;2.20;99.90;;;;;;5016423;28;20195;-71
2021/04/16 05:18:42;;;;;;;3.75;1.40;;;2.20;99.90;;;;;;5019301;28;20205;-71
2021/04/16 05:21:08;;;;;;;2.28;1.20;;;2.30;99.90;;;;;;5018761;28;20209;-71
2021/04/16 05:23:34;;;;;;;1.95;1.45;;;2.40;99.90;;;;;;5013873;28;20692;-71
2021/04/16 05:25:59;;;;;;;4.35;1.48;;;2.40;99.90;;;;;;5022702;28;20436;-71
2021/04/16 05:28:25;;;;;;;3.60;1.60;;;2.50;99.90;;;;;;5022830;28;20238;-72
2021/04/16 05:30:51;;;;;;;2.55;1.30;;;2.50;99.90;;;;;;5014634;28;20206;-71
2021/04/16 05:33:17;;;;;;;2.97;1.38;;;2.50;99.90;;;;;;5015794;28;20237;-73
2021/04/16 05:35:43;;;;;;;3.25;1.52;;;2.60;99.90;;;;;;5019973;28;20285;-73
2021/04/16 05:38:09;;;;;;;5.55;1.80;;;2.60;99.90;;;;;;5019471;28;20197;-72
2021/04/16 05:40:35;;;;;;;6.15;1.67;;;2.70;99.90;;;;;;5034535;28;20668;-72
2021/04/16 05:43:01;;;;;;;5.70;1.42;;;2.80;99.90;;;;;;5014478;28;20245;-71
2021/04/16 05:45:27;;;;;;;1.83;1.30;;;2.90;99.90;;;;;;5021076;28;20222;-72
2021/04/16 05:47:52;;;;;;;3.35;1.48;;;3.00;99.90;;;;;;5012133;28;20818;-72
2021/04/16 05:50:18;;;;;;;3.45;1.83;;;3.10;99.90;;;;;;5019521;28;20194;-73
2021/04/16 05:52:44;;;;;;;3.65;1.52;;;3.20;99.90;;;;;;5017496;28;22083;-73
2021/04/16 05:55:11;;;;;;;3.42;1.52;;;3.30;99.90;;;;;;5022570;28;20228;-72
2021/04/16 05:57:37;;;;;;;3.25;1.65;;;3.40;99.90;;;;;;5021574;28;20197;-73
2021/04/16 06:00:06;;;;;;;4.97;1.63;;;3.60;99.90;;;;;;5021947;28;20195;-72
2021/04/16 06:02:38;;;;;;;9.75;1.80;;;3.60;99.90;;;;;;5039480;28;20673;-72
2021/04/16 06:05:15;;;;;;;3.38;1.42;;;3.80;99.90;;;;;;5018174;28;20275;-72
2021/04/16 06:07:43;;;;;;;2.15;1.45;;;3.80;99.90;;;;;;5025857;28;20202;-72
2021/04/16 06:10:11;;;;;;;4.63;1.63;;;3.90;99.90;;;;;;5036014;28;20202;-72
2021/04/16 06:12:38;;;;;;;3.30;1.48;;;4.00;99.90;;;;;;5037259;28;20222;-72
2021/04/16 06:15:10;;;;;;;2.20;1.67;;;4.10;99.90;;;;;;5015130;28;20218;-72
2021/04/16 06:17:37;;;;;;;4.90;1.60;;;4.10;99.90;;;;;;5035650;28;20628;-72
2021/04/16 06:20:05;;;;;;;2.92;1.80;;;4.20;99.90;;;;;;5020102;28;20280;-74
2021/04/16 06:22:30;;;;;;;2.88;1.52;;;4.30;99.90;;;;;;5022928;28;20611;-73
2021/04/16 06:24:56;;;;;;;2.40;1.55;;;4.50;99.90;;;;;;5022018;28;20226;-73
2021/04/16 06:27:22;;;;;;;2.55;1.60;;;4.50;99.90;;;;;;5018891;28;20202;-72
2021/04/16 06:29:48;;;;;;;1.63;1.40;;;4.60;99.90;;;;;;5018788;28;20199;-72
2021/04/16 06:32:15;;;;;;;1.98;1.50;;;4.70;99.90;;;;;;5037856;28;20267;-72
2021/04/16 06:34:43;;;;;;;3.60;1.67;;;4.80;99.90;;;;;;5018049;28;20212;-72
2021/04/16 06:37:09;;;;;;;3.88;1.67;;;4.90;99.90;;;;;;5020298;28;20207;-72
2021/04/16 06:39:35;;;;;;;2.67;1.70;;;5.00;99.90;;;;;;5022648;28;20186;-71
2021/04/16 06:42:05;;;;;;;2.40;1.42;;;5.10;99.90;;;;;;5025846;28;20198;-71
2021/04/16 06:44:33;;;;;;;2.55;1.65;;;5.30;99.90;;;;;;5022290;28;20767;-72
2021/04/16 06:47:14;;;;;;;2.83;1.50;;;5.40;99.90;;;;;;5019166;28;20267;-72
2021/04/16 06:49:41;;;;;;;6.88;2.10;;;5.50;99.90;;;;;;5021831;28;20194;-72
2021/04/16 06:52:11;;;;;;;2.85;1.70;;;5.60;99.90;;;;;;5022478;28;20213;-72
2021/04/16 06:54:49;;;;;;;3.00;1.73;;;5.70;99.90;;;;;;5017226;28;20205;-73
2021/04/16 06:57:44;;;;;;;2.88;1.42;;;5.90;99.90;;;;;;5026174;28;20276;-72
2021/04/16 07:00:21;;;;;;;2.42;1.50;;;6.00;99.90;;;;;;5003173;28;20810;-72
2021/04/16 07:03:11;;;;;;;1.65;1.35;;;6.10;99.90;;;;;;5027750;28;20280;-72
2021/04/16 07:05:52;;;;;;;1.70;1.30;;;6.20;99.90;;;;;;5029180;28;20301;-72
2021/04/16 07:08:35;;;;;;;2.15;1.40;;;6.30;99.90;;;;;;5022924;28;20285;-73
2021/04/16 07:11:08;;;;;;;2.00;1.65;;;6.40;99.90;;;;;;5019117;28;20920;-71
2021/04/16 07:13:37;;;;;;;5.75;1.80;;;6.40;99.90;;;;;;5018398;28;20269;-72
2021/04/16 07:16:04;;;;;;;3.88;1.90;;;6.40;99.90;;;;;;5025358;28;20222;-71
2021/04/16 07:18:35;;;;;;;2.85;1.45;;;6.50;99.90;;;;;;5019911;28;20198;-73
2021/04/16 07:21:02;;;;;;;3.53;1.70;;;6.70;99.90;;;;;;5022216;28;20293;-72
2021/04/16 07:23:27;;;;;;;2.58;1.40;;;6.70;99.90;;;;;;5025019;28;20198;-72
2021/04/16 07:26:21;;;;;;;2.65;1.50;;;6.80;99.90;;;;;;5020083;28;20592;-72
2021/04/16 07:28:51;;;;;;;2.65;1.30;;;6.90;99.90;;;;;;5022964;28;20202;-73
2021/04/16 07:31:53;;;;;;;2.75;1.50;;;7.10;99.90;;;;;;5022686;28;20205;-72
2021/04/16 07:34:51;;;;;;;2.00;1.40;;;7.30;99.90;;;;;;5012070;28;20239;-72
2021/04/16 07:37:27;;;;;;;5.28;1.67;;;7.60;99.90;;;;;;4969051;28;20723;-72
2021/04/16 07:40:04;;;;;;;2.60;1.90;;;7.90;99.90;;;;;;5038675;28;20194;-73
2021/04/16 07:42:43;;;;;;;2.03;1.52;;;8.00;99.90;;;;;;5018824;28;20265;-72
2021/04/16 07:45:18;;;;;;;3.53;1.60;;;8.10;99.90;;;;;;5021262;28;20243;-75
2021/04/16 07:47:45;;;;;;;2.97;1.80;;;8.20;99.90;;;;;;5019859;28;20664;-71
2021/04/16 07:50:28;;;;;;;4.15;1.50;;;8.30;99.90;;;;;;5024104;28;20208;-73
2021/04/16 07:52:55;;;;;;;2.33;1.40;;;8.30;99.90;;;;;;5021943;28;20249;-75
2021/04/16 07:55:24;;;;;;;6.18;1.80;;;8.50;99.90;;;;;;5030363;28;20210;-73
2021/04/16 07:57:52;;;;;;;4.18;1.70;;;8.70;99.90;;;;;;5023482;28;20190;-72
2021/04/16 08:00:27;;;;;;;3.67;1.67;;;8.70;99.90;;;;;;5021474;28;20191;-73
2021/04/16 08:03:06;;;;;;;4.30;1.60;;;8.90;99.90;;;;;;5022441;28;20190;-72
2021/04/16 08:05:44;;;;;;;2.00;1.65;;;9.00;99.90;;;;;;5021293;28;20617;-73
2021/04/16 08:08:12;;;;;;;1.65;1.35;;;9.30;99.90;;;;;;5026365;28;20603;-75
2021/04/16 08:10:39;;;;;;;3.33;1.50;;;9.40;99.90;;;;;;5036407;28;20268;-73
2021/04/16 08:13:20;;;;;;;4.50;1.40;;;9.60;99.90;;;;;;5021855;28;20249;-72
2021/04/16 08:15:46;;;;;;;4.88;1.70;;;9.60;99.90;;;;;;5019081;28;20578;-72
2021/04/16 08:18:26;;;;;;;2.13;1.20;;;9.70;99.90;;;;;;5022995;28;20739;-73
2021/04/16 08:21:02;;;;;;;4.22;1.42;;;10.00;99.20;;;;;;5034478;28;20194;-72
2021/04/16 08:23:37;;;;;;;4.47;1.70;;;10.30;98.50;;;;;;5023628;28;20223;-72
2021/04/16 08:26:09;;;;;;;3.85;1.40;;;10.60;98.60;;;;;;5014182;28;20206;-72
2021/04/16 08:28:51;;;;;;;4.68;1.60;;;10.90;97.20;;;;;;5027001;28;20246;-72
2021/04/16 08:31:34;;;;;;;4.70;1.55;;;10.90;94.60;;;;;;5018629;28;20256;-73
2021/04/16 08:34:12;;;;;;;3.88;1.50;;;11.10;94.60;;;;;;5023342;28;20218;-73
2021/04/16 08:36:43;;;;;;;2.08;1.42;;;11.20;93.60;;;;;;5021108;28;20190;-73
2021/04/16 08:39:33;;;;;;;6.63;1.52;;;11.20;93.40;;;;;;5023244;28;20313;-73
2021/04/16 08:42:03;;;;;;;3.80;1.55;;;11.10;92.40;;;;;;5038059;28;20202;-72
2021/04/16 08:44:34;;;;;;;4.25;1.75;;;11.00;93.10;;;;;;5017699;28;20239;-72
2021/04/16 08:47:01;;;;;;;2.63;1.52;;;11.10;92.70;;;;;;5037769;28;20201;-72
2021/04/16 08:49:32;;;;;;;4.78;1.55;;;11.40;91.20;;;;;;5021963;28;20223;-72
2021/04/16 08:52:02;;;;;;;3.95;1.50;;;11.30;90.20;;;;;;5021028;28;20686;-72
2021/04/16 08:54:32;;;;;;;4.65;1.45;;;11.40;91.10;;;;;;5022244;28;20206;-72
2021/04/16 08:57:15;;;;;;;5.38;1.63;;;11.50;89.70;;;;;;5022157;28;20225;-73
2021/04/16 08:59:52;;;;;;;3.15;1.85;;;11.40;85.90;;;;;;5019870;28;20190;-72
2021/04/16 09:02:22;;;;;;;2.97;1.52;;;11.80;87.80;;;;;;5021728;28;20208;-73
2021/04/16 09:04:52;;;;;;;4.63;1.50;;;11.70;86.90;;;;;;5020988;28;20253;-72
2021/04/16 09:07:32;;;;;;;5.07;1.48;;;11.90;85.20;;;;;;5020049;28;20208;-72
2021/04/16 09:09:59;;;;;;;2.78;1.30;;;12.20;85.30;;;;;;5018317;28;20273;-74
2021/04/16 09:12:40;;;;;;;6.45;1.40;;;12.40;83.00;;;;;;5021319;28;20289;-72
2021/04/16 09:15:29;;;;;;;2.30;1.45;;;12.40;81.10;;;;;;5014771;28;20232;-72
2021/04/16 09:17:57;;;;;;;6.10;1.58;;;12.40;82.20;;;;;;5031309;28;20258;-75
2021/04/16 09:20:24;;;;;;;2.97;1.58;;;12.60;82.30;;;;;;5017028;28;20696;-73
2021/04/16 09:22:52;;;;;;;3.35;1.38;;;12.80;81.60;;;;;;5017341;28;20197;-72
2021/04/16 09:25:33;;;;;;;2.63;1.13;;;13.00;80.30;;;;;;5015425;28;20209;-74
2021/04/16 09:28:21;;;;;;;1.77;1.20;;;13.60;75.10;;;;;;5017976;28;20750;-75
2021/04/16 09:30:57;;;;;;;3.20;1.40;;;13.60;74.50;;;;;;5031799;28;20300;-73
2021/04/16 09:33:40;;;;;;;3.35;1.35;;;13.70;74.10;;;;;;5019478;28;20201;-72
2021/04/16 09:36:09;;;;;;;7.18;3.15;;;13.40;74.80;;;;;;5016401;28;20309;-73
2021/04/16 09:38:53;;;;;;;5.40;1.45;;;13.30;73.50;;;;;;5020346;28;20696;-73
2021/04/16 09:41:19;;;;;;;4.95;1.30;;;13.40;75.20;;;;;;5021463;28;21288;-73
2021/04/16 09:43:47;;;;;;;2.83;1.25;;;13.50;74.60;;;;;;5019353;28;20374;-73
2021/04/16 09:46:31;;;;;;;4.88;1.40;;;13.60;72.40;;;;;;5019739;28;20572;-73
2021/04/16 09:49:22;;;;;;;5.63;1.60;;;13.60;71.00;;;;;;5022332;28;20202;-73
2021/04/16 09:51:48;;;;;;;2.67;1.17;;;13.80;71.30;;;;;;5012869;28;20579;-72
2021/04/16 09:54:25;;;;;;;2.47;1.30;;;13.70;68.70;;;;;;5023086;28;20295;-73
2021/04/16 09:57:03;;;;;;;2.35;1.08;;;14.00;67.30;;;;;;5022052;28;20194;-73
2021/04/16 09:59:33;;;;;;;5.03;1.40;;;14.20;67.10;;;;;;5021659;28;20218;-74
2021/04/16 10:02:14;;;;;;;1.90;1.33;;;14.30;69.90;;;;;;5021186;28;20195;-73
2021/04/16 10:05:02;;;;;;;3.72;1.40;;;14.70;68.90;;;;;;5017979;28;20232;-73
2021/04/16 10:07:43;;;;;;;1.90;1.10;;;14.80;66.80;;;;;;5020812;28;20190;-73
2021/04/16 10:10:27;;;;;;;2.65;1.27;;;15.40;66.30;;;;;;5023237;28;20229;-73
2021/04/16 10:13:03;;;;;;;1.88;1.15;;;15.50;63.40;;;;;;5023035;28;20202;-73
2021/04/16 10:15:36;;;;;;;5.28;1.20;;;15.30;63.50;;;;;;5018745;28;20594;-74
2021/04/16 10:18:07;;;;;;;1.80;1.10;;;15.00;62.50;;;;;;5022915;28;20199;-73
2021/04/16 10:20:39;;;;;;;2.85;1.35;;;15.10;64.00;;;;;;5026227;28;20248;-73
2021/04/16 10:23:18;;;;;;;3.22;1.20;;;15.50;66.40;;;;;;5026838;28;20285;-73
2021/04/16 11:02:53;;;;;;;3.13;1.15;;;16.70;59.50;;;;;;5018860;28;20195;-74
2021/04/16 12:41:27;;;;;;;1.38;0.90;;;18.70;48.60;;;;;;5018632;28;20197;-72
2021/04/16 12:43:53;;;;;;;2.28;1.05;;;18.90;47.10;;;;;;5019760;28;20190;-74
2021/04/16 12:46:24;;;;;;;1.30;0.85;;;19.20;48.40;;;;;;5020038;28;20190;-74
2021/04/16 12:48:51;;;;;;;1.23;0.88;;;19.60;47.00;;;;;;5020402;28;20208;-74
2021/04/16 12:51:17;;;;;;;1.95;0.90;;;19.30;47.10;;;;;;5018797;28;20201;-74
2021/04/16 12:53:42;;;;;;;5.15;0.82;;;19.00;48.70;;;;;;5018451;28;20553;-73
2021/04/16 12:56:12;;;;;;;2.63;0.85;;;18.30;47.80;;;;;;5015580;28;20208;-74
2021/04/16 12:58:43;;;;;;;3.08;1.00;;;18.10;49.20;;;;;;5032922;28;20205;-75
2021/04/16 13:01:16;;;;;;;1.95;0.90;;;18.30;49.60;;;;;;5020050;28;20200;-75
2021/04/16 13:03:42;;;;;;;1.00;0.90;;;18.40;49.40;;;;;;5032434;28;20224;-74
2021/04/16 13:06:23;;;;;;;3.53;0.77;;;18.30;50.50;;;;;;5015952;28;20289;-76
2021/04/16 13:08:49;;;;;;;2.90;0.90;;;18.30;51.10;;;;;;5020729;28;20204;-76
2021/04/16 13:11:15;;;;;;;1.70;0.90;;;18.60;48.90;;;;;;5016685;28;20218;-75
2021/04/16 13:13:41;;;;;;;2.53;0.88;;;18.30;49.10;;;;;;5017071;28;20320;-76
2021/04/16 13:16:07;;;;;;;1.50;0.80;;;18.30;50.00;;;;;;5020550;28;20214;-75
2021/04/16 13:18:37;;;;;;;1.83;0.90;;;18.60;49.00;;;;;;5015048;28;20191;-75
2021/04/16 13:21:05;;;;;;;3.88;1.00;;;18.50;50.30;;;;;;5020102;28;20736;-75
2021/04/16 13:23:31;;;;;;;3.10;0.95;;;18.00;49.30;;;;;;5015523;28;20210;-75
2021/04/16 13:25:57;;;;;;;2.97;0.90;;;17.80;50.90;;;;;;5019833;28;20213;-76
2021/04/16 13:28:22;;;;;;;1.10;0.80;;;17.70;50.40;;;;;;5033458;28;20206;-74
2021/04/16 13:30:48;;;;;;;1.58;0.85;;;17.70;50.70;;;;;;5010526;28;20672;-76
2021/04/16 13:33:17;;;;;;;1.00;0.80;;;17.80;50.40;;;;;;5032099;28;20225;-75
2021/04/16 13:35:46;;;;;;;3.47;1.10;;;17.70;49.20;;;;;;5034240;28;20581;-76
2021/04/16 13:38:18;;;;;;;1.67;0.80;;;17.90;50.40;;;;;;5015045;28;20277;-76
2021/04/16 13:40:44;;;;;;;2.80;1.10;;;17.70;50.60;;;;;;5017502;28;20708;-76
2021/04/16 13:43:11;;;;;;;1.02;0.90;;;17.70;50.10;;;;;;5019926;28;20199;-76
2021/04/16 13:45:37;;;;;;;2.70;1.10;;;17.40;51.10;;;;;;5021962;28;20197;-75
2021/04/16 13:48:03;;;;;;;0.80;0.80;;;17.10;49.60;;;;;;5019528;28;20285;-76
2021/04/16 13:50:29;;;;;;;2.38;0.82;;;16.60;51.90;;;;;;5023527;28;20202;-75
2021/04/16 13:52:55;;;;;;;3.78;0.98;;;16.70;51.80;;;;;;5020637;28;20298;-75
2021/04/16 13:55:22;;;;;;;2.45;1.00;;;16.80;50.60;;;;;;5017095;28;20222;-74
2021/04/16 13:57:48;;;;;;;1.42;0.80;;;17.10;51.70;;;;;;5016241;28;20194;-75
2021/04/16 14:00:22;;;;;;;4.28;1.10;;;17.30;53.00;;;;;;5012577;28;20673;-74
2021/04/16 14:02:52;;;;;;;1.98;0.90;;;17.50;52.20;;;;;;5000678;28;20202;-75
2021/04/16 14:05:22;;;;;;;1.48;0.90;;;17.20;51.50;;;;;;5012309;28;20245;-76
2021/04/16 14:07:50;;;;;;;1.50;0.80;;;17.40;52.20;;;;;;5017109;28;20202;-77
2021/04/16 14:10:18;;;;;;;1.80;1.02;;;17.70;50.70;;;;;;5018420;28;20210;-76
2021/04/16 14:12:44;;;;;;;1.80;1.00;;;17.80;51.00;;;;;;5020270;28;20206;-74
2021/04/16 14:15:10;;;;;;;3.00;0.90;;;17.90;51.40;;;;;;5020898;28;20288;-76
2021/04/16 14:17:46;;;;;;;1.85;1.50;;;17.70;52.00;;;;;;5015198;28;20321;-76
2021/04/16 14:20:27;;;;;;;3.10;1.02;;;17.90;51.80;;;;;;5028682;28;20740;-75
2021/04/16 14:22:53;;;;;;;6.68;3.05;;;17.50;51.10;;;;;;5019667;28;20649;-75
2021/04/16 14:25:33;;;;;;;2.00;1.20;;;17.70;52.60;;;;;;5020178;28;20204;-75
2021/04/16 14:27:59;;;;;;;2.55;1.50;;;17.80;52.50;;;;;;5021624;28;20309;-77
2021/04/16 14:30:32;;;;;;;5.70;3.50;;;17.80;52.80;;;;;;5018979;28;20809;-76
2021/04/16 14:33:00;;;;;;;2.55;1.80;;;17.50;52.40;;;;;;5023694;28;20199;-75
2021/04/16 14:35:29;;;;;;;36.15;20.88;;;17.20;51.50;;;;;;5017545;28;20207;-74
2021/04/16 14:37:57;;;;;;;54.15;24.10;;;17.20;53.00;;;;;;5021685;28;20194;-75
2021/04/16 14:40:23;;;;;;;2.67;1.38;;;17.40;52.00;;;;;;5030488;28;20190;-75
2021/04/16 14:42:55;;;;;;;2.97;1.30;;;17.30;52.30;;;;;;5024345;28;20210;-74
2021/04/16 14:46:01;;;;;;;4.55;2.03;;;17.50;52.10;;;;;;5018251;28;20217;-75
2021/04/16 14:48:29;;;;;;;6.05;1.23;;;17.50;52.20;;;;;;5015530;28;20231;-75
2021/04/16 14:50:58;;;;;;;2.50;1.10;;;17.20;52.60;;;;;;5031526;28;20195;-76
2021/04/16 14:53:27;;;;;;;1.48;1.00;;;16.60;53.00;;;;;;5019945;28;20201;-76
2021/04/16 14:55:53;;;;;;;2.33;1.00;;;16.40;55.00;;;;;;5018444;28;20202;-76
2021/04/16 14:58:49;;;;;;;2.70;1.00;;;16.00;55.80;;;;;;5020173;28;20664;-75
2021/04/16 15:01:17;;;;;;;3.38;0.93;;;16.00;55.70;;;;;;5037529;28;20675;-74
2021/04/16 15:03:43;;;;;;;1.88;1.10;;;15.80;55.60;;;;;;5022099;28;20206;-74
2021/04/16 15:06:21;;;;;;;2.00;1.00;;;15.60;55.40;;;;;;5021601;28;21056;-75
2021/04/16 15:09:02;;;;;;;1.30;0.90;;;16.10;55.20;;;;;;5033250;28;20205;-75
2021/04/16 15:11:42;;;;;;;1.13;0.90;;;16.30;55.80;;;;;;5021769;28;20285;-75
2021/04/16 15:14:29;;;;;;;1.45;0.90;;;16.70;55.20;;;;;;5018083;28;20288;-76
2021/04/16 15:16:55;;;;;;;1.50;1.05;;;16.80;53.50;;;;;;5032585;28;20903;-76
2021/04/16 15:19:46;;;;;;;1.48;0.90;;;16.10;54.20;;;;;;5032240;28;20203;-74
2021/04/16 15:22:18;;;;;;;3.75;1.10;;;15.40;55.50;;;;;;5021226;28;20544;-74